EKBI

Billund Airport

Billund, Denmark
TAF EKBI 171053Z 1712/1812 12005KT 8000 BKN015 TEMPO 1712/1717 4000 BR BKN012 TEMPO 1717/1724 2000 BR BKN004 BECMG 1800/1802 2000 BR BKN004 TEMPO 1802/1806 4000 BR BKN008 BECMG 1806/1808 0300 FG BKN001 TEMPO 1808/1812 1500 BCFG BR BKN003
Issued Valid From Valid To
Dec-17 @ 10:53 UTC
(2 hours ago)
Dec-17 @ 12:00 UTC
(35 minutes ago)
Dec-18 @ 12:00 UTC
(in 23 hours)
Dec-17 @ 12:00 to Dec-18 @ 00:00
TAF EKBI 171053Z 1712/1812 12005KT 8000 BKN015
Wind Visibility Clouds
120° at 5 knots 7,998 meters
  • Broken at 1,500' AGL
Temporary Dec-17 @ 12:00 to Dec-17 @ 17:00
TEMPO 1712/1717 4000 BR BKN012
Visibility Clouds Conditions
4,007 meters
  • Broken at 1,200' AGL
  • Mist
Temporary Dec-17 @ 17:00 to Dec-18 @ 00:00
TEMPO 1717/1724 2000 BR BKN004
Visibility Clouds Conditions
1,996 meters
  • Broken at 400' AGL
  • Mist
Becoming Dec-18 @ 00:00 to Dec-18 @ 06:00
BECMG 1800/1802 2000 BR BKN004
Wind Visibility Clouds Conditions
120° at 5 knots 1,996 meters
  • Broken at 400' AGL
  • Mist
Temporary Dec-18 @ 02:00 to Dec-18 @ 06:00
TEMPO 1802/1806 4000 BR BKN008
Visibility Clouds Conditions
4,007 meters
  • Broken at 800' AGL
  • Mist
Becoming Dec-18 @ 06:00 to Dec-18 @ 12:00
BECMG 1806/1808 0300 FG BKN001
Wind Visibility Clouds Conditions
120° at 5 knots 306 meters
  • Broken at 100' AGL
  • Fog
Temporary Dec-18 @ 08:00 to Dec-18 @ 12:00
TEMPO 1808/1812 1500 BCFG BR BKN003
Visibility Clouds Conditions
1,497 meters
  • Broken at 300' AGL
  • Patches of
  • Fog
  • Mist
TAF EKBI 171053Z 1712/1812 12005KT 8000 BKN015 TEMPO 1712/1717 4000 BR BKN012 TEMPO 1717/1724 2000 BR BKN004 BECMG 1800/1802 2000 BR BKN004 TEMPO 1802/1806 4000 BR BKN008 BECMG 1806/1808 0300 FG BKN001 TEMPO 1808/1812 1500 BCFG BR BKN003
Issued Dec-17 @ 10:53 UTC
(2 hours ago)
Valid From Dec-17 @ 12:00 UTC
(35 minutes ago)
Valid To Dec-18 @ 12:00 UTC
(in 23 hours)
Dec-17 @ 12:00 - Dec-18 @ 00:00
Wind Visibility
120° at 5 knots 7,998 meters
Clouds
  • Broken at 1,500' AGL
Temporary Dec-17 @ 12:00 - Dec-17 @ 17:00
Clouds
  • Broken at 1,200' AGL
Conditions
  • Mist
Temporary Dec-17 @ 17:00 - Dec-18 @ 00:00
Clouds
  • Broken at 400' AGL
Conditions
  • Mist
Becoming Dec-18 @ 00:00 - Dec-18 @ 06:00
Wind Visibility
120° at 5 knots 1,996 meters
Clouds
  • Broken at 400' AGL
Conditions
  • Mist
Temporary Dec-18 @ 02:00 - Dec-18 @ 06:00
Clouds
  • Broken at 800' AGL
Conditions
  • Mist
Becoming Dec-18 @ 06:00 - Dec-18 @ 12:00
Wind Visibility
120° at 5 knots 306 meters
Clouds
  • Broken at 100' AGL
Conditions
  • Fog
Temporary Dec-18 @ 08:00 - Dec-18 @ 12:00
Clouds
  • Broken at 300' AGL
Conditions
  • Patches of
  • Fog
  • Mist